createdAt,value
2023-01-10T00:02:11.557Z,0.99
2023-01-10T00:05:11.668Z,0.97
2023-01-10T00:08:11.666Z,1.36
2023-01-10T00:11:11.683Z,1.14
2023-01-10T00:14:11.642Z,1.23
2023-01-10T00:17:11.589Z,1.12
2023-01-10T00:20:11.598Z,1.14
2023-01-10T00:23:11.622Z,1.22
2023-01-10T00:26:11.648Z,1.63
2023-01-10T00:29:11.615Z,1.61
2023-01-10T00:32:11.576Z,1.37
2023-01-10T00:35:11.715Z,1.8
2023-01-10T00:38:11.702Z,2
2023-01-10T00:41:11.596Z,1.57
2023-01-10T00:44:11.700Z,1.48
2023-01-10T00:47:11.675Z,1.4
2023-01-10T00:50:11.726Z,1.44
2023-01-10T00:53:11.661Z,1.62
2023-01-10T00:56:11.590Z,1.77
2023-01-10T00:59:11.704Z,1.19
2023-01-10T01:02:11.772Z,1.2
2023-01-10T01:05:11.759Z,1.49
2023-01-10T01:08:11.628Z,1.49
2023-01-10T01:11:11.719Z,1.36
2023-01-10T01:14:12.959Z,1.33
2023-01-10T01:17:11.694Z,1.34
2023-01-10T01:20:11.663Z,1.15
2023-01-10T01:23:11.689Z,1.46
2023-01-10T01:26:11.683Z,1.23
2023-01-10T01:29:11.658Z,1.68
2023-01-10T01:32:11.709Z,1.58
2023-01-10T01:35:11.736Z,1.44
2023-01-10T01:38:11.700Z,1.88
2023-01-10T01:41:11.749Z,1.51
2023-01-10T01:44:11.694Z,1.32
2023-01-10T01:47:11.732Z,1.29
2023-01-10T01:50:11.713Z,1.57
2023-01-10T01:53:11.730Z,1.29
2023-01-10T01:56:11.720Z,1.61
2023-01-10T01:59:11.758Z,1.51
2023-01-10T02:02:11.710Z,1.49
2023-01-10T02:05:11.713Z,1.62
2023-01-10T02:08:11.751Z,1.29
2023-01-10T02:11:11.701Z,1.25
2023-01-10T02:14:11.765Z,1.47
2023-01-10T02:17:11.695Z,1.43
2023-01-10T02:20:11.726Z,1.22
2023-01-10T02:23:11.781Z,1.14
2023-01-10T02:26:11.765Z,0.86
2023-01-10T02:29:11.832Z,0.91
2023-01-10T02:32:11.736Z,1.24
2023-01-10T02:35:11.820Z,1.36
2023-01-10T02:38:11.768Z,0.93
2023-01-10T02:41:11.750Z,0.89
2023-01-10T02:44:11.717Z,0.8
2023-01-10T02:47:11.754Z,0.72
2023-01-10T02:50:11.788Z,1.17
2023-01-10T02:53:12.147Z,0.96
2023-01-10T02:56:11.742Z,1.19
2023-01-10T02:59:11.767Z,1.09
2023-01-10T03:02:11.729Z,1.22
2023-01-10T03:05:11.819Z,1.51
2023-01-10T03:08:11.844Z,1.11
2023-01-10T03:11:11.740Z,1.08
2023-01-10T03:14:11.755Z,1.36
2023-01-10T03:17:11.819Z,1.23
2023-01-10T03:20:11.850Z,1.39
2023-01-10T03:23:11.812Z,1.46
2023-01-10T03:26:12.229Z,1.72
2023-01-10T03:29:11.806Z,1.45
2023-01-10T03:32:11.816Z,1.72
2023-01-10T03:35:11.783Z,1.39
2023-01-10T03:38:12.092Z,1.37
2023-01-10T03:41:11.864Z,1.69
2023-01-10T03:44:11.832Z,1.72
2023-01-10T03:47:11.826Z,1.68
2023-01-10T03:50:11.868Z,1.97
2023-01-10T03:53:11.844Z,1.73
2023-01-10T03:56:12.184Z,2.03
2023-01-10T03:59:11.772Z,1.88
2023-01-10T04:02:11.857Z,1.81
2023-01-10T04:05:11.869Z,1.59
2023-01-10T04:08:11.806Z,1.54
2023-01-10T04:11:11.883Z,1.76
2023-01-10T04:14:11.887Z,1.41
2023-01-10T04:17:11.900Z,1.56
2023-01-10T04:20:11.818Z,1.49
2023-01-10T04:23:11.892Z,1.65
2023-01-10T04:26:11.784Z,1.69
2023-01-10T04:29:11.842Z,1.38
2023-01-10T04:32:11.842Z,1.77
2023-01-10T04:35:11.800Z,1.66
2023-01-10T04:38:11.877Z,1.67
2023-01-10T04:41:11.881Z,1.5
2023-01-10T04:44:11.865Z,1.62
2023-01-10T04:47:11.847Z,1.23
2023-01-10T04:50:11.905Z,1.25
2023-01-10T04:53:11.834Z,1.47
2023-01-10T04:56:11.829Z,1.71
2023-01-10T04:59:11.842Z,1.37
2023-01-10T05:02:11.906Z,1.77
2023-01-10T05:05:11.881Z,1.67
2023-01-10T05:08:11.842Z,1.69
2023-01-10T05:11:11.842Z,1.72
2023-01-10T05:14:12.238Z,1.85
2023-01-10T05:17:11.929Z,1.59
2023-01-10T05:20:11.849Z,1.74
2023-01-10T05:23:11.944Z,1.94
2023-01-10T05:26:11.969Z,1.81
2023-01-10T05:29:11.901Z,1.46
2023-01-10T05:32:11.869Z,1.59
2023-01-10T05:35:11.841Z,1.73
2023-01-10T05:38:11.947Z,2.05
2023-01-10T05:41:11.884Z,1.54
2023-01-10T05:44:13.109Z,1.37
2023-01-10T05:47:11.897Z,1.48
2023-01-10T05:50:11.944Z,1.51
2023-01-10T05:53:11.951Z,1.1
2023-01-10T05:56:11.889Z,1.49
2023-01-10T05:59:27.184Z,1.23
2023-01-10T06:02:12.052Z,1.3
2023-01-10T06:05:16.575Z,1.27
2023-01-10T06:08:13.592Z,1.32
2023-01-10T06:11:11.952Z,1.74
2023-01-10T06:14:11.951Z,0.95
2023-01-10T06:17:11.909Z,1.26
2023-01-10T06:20:11.971Z,1.08
2023-01-10T06:23:11.879Z,1.2
2023-01-10T06:26:13.088Z,1.38
2023-01-10T06:29:11.961Z,1.67
2023-01-10T06:32:12.011Z,1.7
2023-01-10T06:35:11.993Z,1.27
2023-01-10T06:38:11.960Z,1.28
2023-01-10T06:41:13.804Z,1.54
2023-01-10T06:44:11.952Z,1.07
2023-01-10T06:47:11.934Z,1.3
2023-01-10T06:50:12.012Z,1.09
2023-01-10T06:53:11.987Z,1.37
2023-01-10T06:56:12.011Z,1.49
2023-01-10T06:59:12.154Z,1.41
2023-01-10T07:02:14.275Z,1.19
2023-01-10T07:05:12.005Z,1.52
2023-01-10T07:08:11.954Z,1.12
2023-01-10T07:11:12.365Z,1.35
2023-01-10T07:14:11.965Z,1.05
2023-01-10T07:17:11.961Z,1.15
2023-01-10T07:20:12.025Z,1.06
2023-01-10T07:23:12.057Z,1.23
2023-01-10T07:26:12.050Z,1.17
2023-01-10T07:29:11.973Z,1.26
2023-01-10T07:32:12.881Z,1.34
2023-01-10T07:35:12.022Z,0.76
2023-01-10T07:38:12.039Z,1.17
2023-01-10T07:41:11.992Z,1.47
2023-01-10T07:44:12.049Z,1.25
2023-01-10T07:47:12.024Z,1.09
2023-01-10T07:50:12.016Z,0.91
2023-01-10T07:53:12.069Z,1.12
2023-01-10T07:56:11.994Z,0.82
2023-01-10T07:59:12.067Z,1.01
2023-01-10T08:02:12.035Z,1.02
2023-01-10T08:05:12.070Z,1.03
2023-01-10T08:08:12.087Z,1.04
2023-01-10T08:11:12.040Z,0.74
2023-01-10T08:14:12.068Z,0.94
2023-01-10T08:17:12.071Z,0.76
2023-01-10T08:20:12.075Z,1.04
2023-01-10T08:23:12.079Z,0.84
2023-01-10T08:26:12.046Z,0.41
2023-01-10T08:29:12.102Z,0.68
2023-01-10T08:32:12.016Z,0.97
2023-01-10T08:35:12.121Z,0.52
2023-01-10T08:38:12.106Z,0.69
2023-01-10T08:41:12.010Z,0.29
2023-01-10T08:44:13.790Z,0.93
2023-01-10T08:47:12.103Z,0.68
2023-01-10T08:50:15.034Z,0.76
2023-01-10T08:53:12.072Z,0.69
2023-01-10T08:56:12.017Z,0.91
2023-01-10T08:59:13.757Z,0.56
2023-01-10T09:02:12.055Z,0.95
2023-01-10T09:05:26.188Z,0.93
2023-01-10T09:08:12.120Z,0.8
2023-01-10T09:11:12.176Z,0.98
2023-01-10T09:14:12.405Z,0.86
2023-01-10T09:17:12.076Z,0.65
2023-01-10T09:20:12.120Z,0.96
2023-01-10T09:23:12.248Z,0.48
2023-01-10T09:26:12.149Z,0.54
2023-01-10T09:29:12.192Z,0.64
2023-01-10T09:32:12.184Z,1.12
2023-01-10T09:35:12.116Z,1.02
2023-01-10T09:38:12.129Z,1.06
2023-01-10T09:41:12.136Z,0.71
2023-01-10T09:44:12.169Z,1.07
2023-01-10T09:47:21.905Z,0.58
2023-01-10T09:50:12.080Z,0.9
2023-01-10T09:53:12.162Z,0.96
2023-01-10T09:56:12.057Z,1.11
2023-01-10T09:59:12.084Z,0.88
2023-01-10T10:02:12.141Z,1
2023-01-10T10:05:12.105Z,1.06
2023-01-10T10:08:12.131Z,0.48
2023-01-10T10:11:12.193Z,0.8
2023-01-10T10:14:12.162Z,1.21
2023-01-10T10:17:12.151Z,0.99
2023-01-10T10:20:12.208Z,0.71
2023-01-10T10:23:12.145Z,1.33
2023-01-10T10:26:12.170Z,1.26
2023-01-10T10:29:12.234Z,0.84
2023-01-10T10:32:12.214Z,0.99
2023-01-10T10:35:12.115Z,0.56
2023-01-10T10:38:12.143Z,0.99
2023-01-10T10:41:12.177Z,0.98
2023-01-10T10:44:12.863Z,1.09
2023-01-10T10:47:12.096Z,0.97
2023-01-10T10:50:12.168Z,0.88
2023-01-10T10:53:12.113Z,1.05
2023-01-10T10:56:12.226Z,1.26
2023-01-10T10:59:12.231Z,1.04
2023-01-10T11:02:12.152Z,0.84
2023-01-10T11:05:12.200Z,0.66
2023-01-10T11:08:12.237Z,1.04
2023-01-10T11:11:12.189Z,0.68
2023-01-10T11:14:12.237Z,0.9
2023-01-10T11:17:12.161Z,0.86
2023-01-10T11:20:12.215Z,0.86
2023-01-10T11:23:12.229Z,0.64
2023-01-10T11:26:12.270Z,0.68
2023-01-10T11:29:12.227Z,0.92
2023-01-10T11:32:12.249Z,0.85
2023-01-10T11:35:12.232Z,1.11
2023-01-10T11:38:12.146Z,1.09
2023-01-10T11:41:12.270Z,0.8
2023-01-10T11:44:12.151Z,0.69
2023-01-10T11:47:12.279Z,0.97
2023-01-10T11:50:12.251Z,0.76
2023-01-10T11:53:12.265Z,0.87
2023-01-10T11:56:12.248Z,0.99
2023-01-10T11:59:12.265Z,0.64
2023-01-10T12:02:12.289Z,0.89
2023-01-10T12:05:12.249Z,0.63
2023-01-10T12:08:12.277Z,0.99
2023-01-10T12:11:12.246Z,0.59
2023-01-10T12:14:12.742Z,1.12
2023-01-10T12:17:12.283Z,1.09
2023-01-10T12:20:15.552Z,1.16
2023-01-10T12:23:14.988Z,1.36
2023-01-10T12:26:12.471Z,1.12
2023-01-10T12:29:12.225Z,1.39
2023-01-10T12:32:12.221Z,1.34
2023-01-10T12:35:12.225Z,1.48
2023-01-10T12:38:12.277Z,1.47
2023-01-10T12:41:12.268Z,1.28
2023-01-10T12:44:12.301Z,1.32
2023-01-10T12:47:13.628Z,1.2
2023-01-10T12:50:12.231Z,1.12
2023-01-10T12:53:12.280Z,1.14
2023-01-10T12:56:12.286Z,0.66
2023-01-10T12:59:12.329Z,0.72
2023-01-10T13:02:12.323Z,0.53
2023-01-10T13:05:12.307Z,0.77
2023-01-10T13:08:12.335Z,0.88
2023-01-10T13:11:12.267Z,0.55
2023-01-10T13:14:12.347Z,0.72
2023-01-10T13:17:12.306Z,0.88
2023-01-10T13:20:12.399Z,0.73
2023-01-10T13:23:12.265Z,0.66
2023-01-10T13:26:12.331Z,0.65
2023-01-10T13:29:12.407Z,0.6
2023-01-10T13:32:12.298Z,0.76
2023-01-10T13:35:12.288Z,1
2023-01-10T13:38:12.322Z,0.9
2023-01-10T13:41:12.446Z,0.57
2023-01-10T13:44:12.548Z,0.66
2023-01-10T13:47:12.338Z,0.7
2023-01-10T13:50:14.075Z,0.56
2023-01-10T13:53:12.380Z,0.12
2023-01-10T13:56:12.319Z,0.45
2023-01-10T13:59:12.315Z,0.88
2023-01-10T14:02:12.320Z,0.39
2023-01-10T14:05:12.336Z,0.56
2023-01-10T14:08:12.372Z,0.32
2023-01-10T14:11:12.361Z,0.38
2023-01-10T14:14:12.401Z,0.01
2023-01-10T14:17:12.288Z,0.22
2023-01-10T14:20:12.385Z,0.06
2023-01-10T14:23:12.403Z,0.15
2023-01-10T14:26:12.368Z,0.36
2023-01-10T14:29:12.351Z,0.21
2023-01-10T14:32:12.351Z,0.35
2023-01-10T14:35:12.350Z,0.32
2023-01-10T14:38:14.147Z,0.29
2023-01-10T14:41:12.421Z,0.01
2023-01-10T14:44:12.329Z,0.21
2023-01-10T14:47:12.440Z,0.03
2023-01-10T14:50:12.353Z,0.27
2023-01-10T14:53:12.438Z,0.05
2023-01-10T14:56:12.320Z,0
2023-01-10T14:59:14.872Z,0.12
2023-01-10T15:02:12.446Z,0.13
2023-01-10T15:05:12.391Z,0.66
2023-01-10T15:08:12.382Z,0.36
2023-01-10T15:11:12.406Z,0.29
2023-01-10T15:14:12.442Z,0.33
2023-01-10T15:17:12.428Z,0.32
2023-01-10T15:20:12.467Z,0.18
2023-01-10T15:23:12.338Z,0.09
2023-01-10T15:26:12.374Z,0.06
2023-01-10T15:29:12.381Z,0.03
2023-01-10T15:32:12.497Z,0.38
2023-01-10T15:35:14.283Z,0.31
2023-01-10T15:38:12.353Z,0.37
2023-01-10T15:41:12.434Z,0.37
2023-01-10T15:44:12.485Z,0.48
2023-01-10T15:47:12.473Z,0.53
2023-01-10T15:50:12.390Z,0.09
2023-01-10T15:53:12.465Z,0.42
2023-01-10T15:56:12.451Z,0.17
2023-01-10T15:59:12.440Z,0.4
2023-01-10T16:02:12.628Z,0.28
2023-01-10T16:05:12.468Z,0.38
2023-01-10T16:08:12.405Z,0.04
2023-01-10T16:11:12.395Z,0.21
2023-01-10T16:14:12.548Z,0.29
2023-01-10T16:17:12.500Z,0.41
2023-01-10T16:20:12.424Z,0.11
2023-01-10T16:23:12.440Z,0.2
2023-01-10T16:26:12.393Z,0.31
2023-01-10T16:29:12.531Z,0.21
2023-01-10T16:32:12.483Z,0.3
2023-01-10T16:35:12.466Z,0.08
2023-01-10T16:38:12.494Z,0.16
2023-01-10T16:41:12.513Z,0.19
2023-01-10T16:44:12.518Z,0.16
2023-01-10T16:47:12.507Z,0.11
2023-01-10T16:50:12.531Z,0.03
2023-01-10T16:53:12.547Z,0.13
2023-01-10T16:56:12.492Z,0.44
2023-01-10T16:59:12.548Z,0.44
2023-01-10T17:02:12.524Z,0.18
2023-01-10T17:05:12.946Z,0.23
2023-01-10T17:08:12.477Z,0.41
2023-01-10T17:11:12.476Z,0.36
2023-01-10T17:14:12.547Z,0.36
2023-01-10T17:17:12.496Z,0.61
2023-01-10T17:20:12.563Z,0.66
2023-01-10T17:23:12.612Z,0.43
2023-01-10T17:26:12.569Z,0.62
2023-01-10T17:29:12.539Z,0.59
2023-01-10T17:32:12.494Z,0.61
2023-01-10T17:35:12.498Z,0.71
2023-01-10T17:38:12.506Z,0.79
2023-01-10T17:41:12.464Z,0.38
2023-01-10T17:44:12.499Z,0.37
2023-01-10T17:47:12.507Z,0.28
2023-01-10T17:50:12.701Z,0.2
2023-01-10T17:53:12.667Z,0.28
2023-01-10T17:56:12.813Z,0.2
2023-01-10T17:59:12.858Z,0.06
2023-01-10T18:02:12.785Z,0.26
2023-01-10T18:05:12.590Z,0.21
2023-01-10T18:08:12.667Z,0.5
2023-01-10T18:11:12.635Z,0.21
2023-01-10T18:14:12.733Z,0.51
2023-01-10T18:17:12.869Z,0.68
2023-01-10T18:20:12.629Z,0.48
2023-01-10T18:23:12.554Z,0.56
2023-01-10T18:26:12.620Z,0.58
2023-01-10T18:29:12.574Z,0.27
2023-01-10T18:32:12.780Z,0.41
2023-01-10T18:35:12.611Z,0.74
2023-01-10T18:38:12.677Z,0.98
2023-01-10T18:41:12.591Z,0.79
2023-01-10T18:44:12.645Z,0.95
2023-01-10T18:47:12.572Z,0.64
2023-01-10T18:50:12.606Z,0.57
2023-01-10T18:53:12.701Z,0.24
2023-01-10T18:56:12.862Z,0.17
2023-01-10T18:59:12.894Z,0.23
2023-01-10T19:02:12.916Z,0.27
2023-01-10T19:05:12.737Z,0.22
2023-01-10T19:08:12.706Z,0.14
2023-01-10T19:11:14.670Z,0.18
2023-01-10T19:14:12.624Z,0.28
2023-01-10T19:17:12.631Z,0.14
2023-01-10T19:20:12.700Z,0.07
2023-01-10T19:23:12.624Z,0.28
2023-01-10T19:26:12.710Z,0.39
2023-01-10T19:29:12.686Z,0.22
2023-01-10T19:32:12.708Z,0.83
2023-01-10T19:35:12.828Z,0.36
2023-01-10T19:38:12.616Z,0.47
2023-01-10T19:41:12.632Z,0.28
2023-01-10T19:44:12.776Z,0.3
2023-01-10T19:47:12.741Z,0.59
2023-01-10T19:50:12.698Z,0.74
2023-01-10T19:53:12.613Z,0.43
2023-01-10T19:56:12.649Z,0.62
2023-01-10T19:59:12.625Z,0.36
2023-01-10T20:02:12.797Z,0.35
2023-01-10T20:05:12.689Z,0.4
2023-01-10T20:08:12.776Z,0.49
2023-01-10T20:11:12.655Z,0.56
2023-01-10T20:14:12.775Z,0.55
2023-01-10T20:17:12.657Z,0.52
2023-01-10T20:20:12.700Z,1.11
2023-01-10T20:23:12.681Z,0.98
2023-01-10T20:26:12.706Z,0.96
2023-01-10T20:29:12.689Z,1.15
2023-01-10T20:32:12.710Z,0.93
2023-01-10T20:35:12.670Z,1.08
2023-01-10T20:38:12.689Z,1.35
2023-01-10T20:41:12.637Z,1.09
2023-01-10T20:44:12.722Z,1.31
2023-01-10T20:47:12.684Z,1.01
2023-01-10T20:50:12.623Z,1.04
2023-01-10T20:53:12.694Z,1.19
2023-01-10T20:56:12.727Z,1.19
2023-01-10T20:59:12.677Z,0.97
2023-01-10T21:02:12.723Z,1.03
2023-01-10T21:05:12.698Z,1.2
2023-01-10T21:08:12.705Z,1.29
2023-01-10T21:11:12.752Z,1.33
2023-01-10T21:14:12.792Z,1.44
2023-01-10T21:17:12.895Z,1.23
2023-01-10T21:20:12.729Z,0.8
2023-01-10T21:23:12.641Z,1.15
2023-01-10T21:26:12.688Z,0.59
2023-01-10T21:29:13.261Z,0.63
2023-01-10T21:32:12.774Z,0.43
2023-01-10T21:35:12.713Z,0.52
2023-01-10T21:38:12.681Z,0.52
2023-01-10T21:41:12.726Z,0.6
2023-01-10T21:44:12.738Z,0.87
2023-01-10T21:47:12.733Z,0.97
2023-01-10T21:50:12.777Z,0.67
2023-01-10T21:53:12.678Z,0.96
2023-01-10T21:56:12.753Z,1.45
2023-01-10T21:59:12.746Z,1.34
2023-01-10T22:02:12.736Z,1.24
2023-01-10T22:05:12.710Z,0.92
2023-01-10T22:08:12.786Z,0.98
2023-01-10T22:11:12.716Z,1.15
2023-01-10T22:14:12.763Z,1.26
2023-01-10T22:17:12.849Z,0.76
2023-01-10T22:20:12.839Z,0.86
2023-01-10T22:23:12.764Z,0.99
2023-01-10T22:26:12.749Z,1.16
2023-01-10T22:29:12.742Z,1.11
2023-01-10T22:32:12.740Z,0.8
2023-01-10T22:35:12.816Z,0.84
2023-01-10T22:38:12.788Z,1.11
2023-01-10T22:41:12.764Z,1.35
2023-01-10T22:44:12.804Z,1.52
2023-01-10T22:47:12.776Z,1.27
2023-01-10T22:50:12.812Z,1.27
2023-01-10T22:53:12.782Z,1.39
2023-01-10T22:56:12.759Z,1.21
2023-01-10T22:59:12.789Z,0.82
2023-01-10T23:02:12.882Z,0.99
2023-01-10T23:05:12.758Z,1.2
2023-01-10T23:08:12.830Z,0.85
2023-01-10T23:11:12.859Z,0.72
2023-01-10T23:14:12.798Z,0.66
2023-01-10T23:17:12.806Z,1.1
2023-01-10T23:20:12.841Z,0.72
2023-01-10T23:23:12.856Z,0.56
2023-01-10T23:26:12.832Z,0.99
2023-01-10T23:29:12.825Z,0.44
2023-01-10T23:32:12.778Z,0.36
2023-01-10T23:35:12.861Z,1.02
2023-01-10T23:38:12.793Z,0.91
2023-01-10T23:41:12.882Z,0.91
2023-01-10T23:44:12.864Z,0.36
2023-01-10T23:47:12.865Z,0.43
2023-01-10T23:50:12.867Z,0.72
2023-01-10T23:53:12.859Z,0.6
2023-01-10T23:56:12.895Z,0.72
2023-01-10T23:59:12.818Z,0.88
